This is the latest recevied weather packets stored in our database for station/object DB0WV-6. If no packets are shown the sender has not sent any weather packets the latest 10 day(s).
| Time | Temp. | Humidity | Pressure | Rain* | Wind** | Luminosity | Snow |
|---|---|---|---|---|---|---|---|
| 1777857316 | 12.78° C | 58% | 1013.2 hPa | 0 mm | - | - | - |
| 1777856113 | 12.78° C | 60% | 1013.3 hPa | 0 mm | - | - | - |
| 1777855514 | 12.22° C | 60% | 1013.4 hPa | 0 mm | - | - | - |
| 1777851915 | 12.22° C | 61% | 1013.8 hPa | 0 mm | - | - | - |
| 1777850733 | 12.22° C | 61% | 1013.8 hPa | 0 mm | - | - | - |
| 1777848913 | 12.22° C | 62% | 1013.9 hPa | 0 mm | - | - | - |
| 1777843213 | 13.33° C | 58% | 1013.5 hPa | 0 mm | - | - | - |
| 1777842614 | 13.33° C | 57% | 1013.5 hPa | 0 mm | - | - | - |
| 1777838418 | 13.33° C | 55% | 1012.9 hPa | 0 mm | - | - | - |
| 1777837814 | 13.33° C | 56% | 1012.8 hPa | 0 mm | - | - | - |
| 1777836015 | 14.44° C | 53% | 1012.3 hPa | 0 mm | - | - | - |
| 1777830614 | 19.44° C | 44% | 1012.1 hPa | 0 mm | - | - | - |
| 1777824615 | 23.33° C | 30% | 1012.4 hPa | 0 mm | - | - | - |
| 1777824034 | 22.78° C | 31% | 1012.1 hPa | 0 mm | - | - | - |
| 1777821614 | 23.89° C | 28% | 1012.4 hPa | 0 mm | - | - | - |
| 1777820414 | 23.89° C | 29% | 1012.5 hPa | 0 mm | - | - | - |
| 1777818634 | 25.56° C | 23% | 1012.7 hPa | 0 mm | - | - | - |
| 1777817414 | 25.56° C | 23% | 1012.8 hPa | 0 mm | - | - | - |
| 1777810814 | 25.56° C | 28% | 1014 hPa | 0 mm | - | - | - |
| 1777809014 | 22.22° C | 33% | 1013.9 hPa | 0 mm | - | - | - |
| 1777804814 | 23.89° C | 36% | 1014.6 hPa | 0 mm | - | - | - |
| 1777803014 | 22.78° C | 38% | 1014.8 hPa | 0 mm | - | - | - |
| 1777802415 | 22.78° C | 38% | 1014.9 hPa | 0 mm | - | - | - |
| 1777797616 | 21.11° C | 42% | 1015.1 hPa | 0 mm | - | - | - |
| 1777796435 | 20° C | 44% | 1015 hPa | 0 mm | - | - | - |
* Rain latest hour (hover to see other rain measurements)
** Current wind speed in m/s (hover to see current wind gust speed)